Time;durP1;ratioP1;P1;durP2;ratioP2;P2;SDS_P1;SDS_P2;PMS_P1;PMS_P2;Temp;Humidity;BMP_temperature;BMP_pressure;BME280_temperature;BME280_humidity;BME280_pressure;Samples;Min_cycle;Max_cycle;Signal;HPM_P1;HPM_P2
2024/02/29 00:01:39;;;;;;;20.40;16.50;;;6.30;99.90;;;;;;5091519;28;20723;-79
2024/02/29 00:04:09;;;;;;;24.77;17.77;;;6.20;99.90;;;;;;5100871;28;20233;-79
2024/02/29 00:06:39;;;;;;;23.38;16.02;;;6.20;99.90;;;;;;5093465;28;21041;-78
2024/02/29 00:09:08;;;;;;;20.90;16.40;;;6.20;99.90;;;;;;5087071;28;20233;-79
2024/02/29 00:11:36;;;;;;;24.15;17.10;;;6.20;99.90;;;;;;5072649;28;20234;-79
2024/02/29 00:14:05;;;;;;;25.45;16.83;;;6.20;99.90;;;;;;5087184;28;20744;-79
2024/02/29 00:16:39;;;;;;;22.10;16.08;;;6.20;99.90;;;;;;5092686;28;20233;-79
2024/02/29 00:19:06;;;;;;;23.83;17.10;;;6.10;99.90;;;;;;5093308;28;20250;-78
2024/02/29 00:21:34;;;;;;;23.20;16.23;;;6.10;99.90;;;;;;5092793;28;20219;-78
2024/02/29 00:24:01;;;;;;;23.98;16.88;;;6.10;99.90;;;;;;5093461;28;20231;-78
2024/02/29 00:26:29;;;;;;;21.67;16.40;;;6.10;99.90;;;;;;5092752;28;20219;-78
2024/02/29 00:28:56;;;;;;;20.60;16.45;;;6.10;99.90;;;;;;5093053;28;20219;-79
2024/02/29 00:31:26;;;;;;;22.88;17.60;;;6.00;99.90;;;;;;5092468;28;20280;-78
2024/02/29 00:33:53;;;;;;;24.13;17.20;;;6.00;99.90;;;;;;5072551;28;20232;-78
2024/02/29 00:36:20;;;;;;;23.13;16.52;;;6.00;99.90;;;;;;5086029;28;20242;-79
2024/02/29 00:38:47;;;;;;;25.13;19.02;;;6.00;99.90;;;;;;5079046;28;20231;-79
2024/02/29 00:41:14;;;;;;;25.05;18.63;;;5.90;99.90;;;;;;5093030;28;20689;-79
2024/02/29 00:43:43;;;;;;;23.67;18.40;;;5.90;99.90;;;;;;5092674;28;20723;-79
2024/02/29 00:46:12;;;;;;;24.48;17.20;;;5.90;99.90;;;;;;5093227;28;20306;-79
2024/02/29 00:48:39;;;;;;;31.27;19.52;;;5.80;99.90;;;;;;5092812;28;20314;-79
2024/02/29 00:51:06;;;;;;;27.73;17.90;;;5.80;99.90;;;;;;5093044;28;20661;-78
2024/02/29 00:53:33;;;;;;;25.15;16.92;;;5.70;99.90;;;;;;5092893;28;20669;-78
2024/02/29 00:56:02;;;;;;;25.13;17.30;;;5.60;99.90;;;;;;5092962;28;20223;-77
2024/02/29 00:58:29;;;;;;;22.30;17.23;;;5.60;99.90;;;;;;5093067;28;20228;-77
2024/02/29 01:00:57;;;;;;;24.13;17.33;;;5.60;99.90;;;;;;5098754;28;21351;-78
2024/02/29 01:03:24;;;;;;;26.58;17.30;;;5.60;99.90;;;;;;5113420;28;20302;-77
2024/02/29 01:05:50;;;;;;;26.60;17.83;;;5.50;99.90;;;;;;5112782;28;20222;-78
2024/02/29 01:08:17;;;;;;;23.73;17.50;;;5.60;99.90;;;;;;5113481;28;20721;-78
2024/02/29 01:10:44;;;;;;;26.52;17.80;;;5.60;99.90;;;;;;5112661;28;20538;-78
2024/02/29 01:13:11;;;;;;;25.23;19.45;;;5.60;99.90;;;;;;5105704;28;20579;-77
2024/02/29 01:15:38;;;;;;;28.30;19.77;;;5.60;99.90;;;;;;5092587;28;20578;-78
2024/02/29 01:18:09;;;;;;;20.90;17.33;;;5.60;99.90;;;;;;5092961;28;20225;-77
2024/02/29 01:20:36;;;;;;;25.98;18.33;;;5.60;99.90;;;;;;5092782;28;20669;-77
2024/02/29 01:23:07;;;;;;;28.75;17.90;;;5.60;99.90;;;;;;5082711;28;20226;-77
2024/02/29 01:25:43;;;;;;;23.13;18.55;;;5.60;99.90;;;;;;5082864;28;20247;-78
2024/02/29 01:28:11;;;;;;;23.65;17.27;;;5.60;99.90;;;;;;5055048;28;20274;-78
2024/02/29 01:30:38;;;;;;;24.08;17.05;;;5.60;99.90;;;;;;5068025;28;20576;-77
2024/02/29 01:33:06;;;;;;;34.33;20.25;;;5.60;99.90;;;;;;5072103;28;22621;-77
2024/02/29 01:35:37;;;;;;;22.08;17.00;;;5.60;99.90;;;;;;5073422;28;20255;-78
2024/02/29 01:38:04;;;;;;;25.45;18.27;;;5.60;99.90;;;;;;5067020;28;20672;-78
2024/02/29 01:40:33;;;;;;;27.80;18.05;;;5.60;99.90;;;;;;5095743;28;20219;-77
2024/02/29 01:43:03;;;;;;;24.27;19.33;;;5.60;99.90;;;;;;5096105;28;20284;-77
2024/02/29 01:45:30;;;;;;;29.10;19.55;;;5.70;99.90;;;;;;5095541;28;20279;-78
2024/02/29 01:47:57;;;;;;;27.70;19.85;;;5.60;99.90;;;;;;5096482;28;20256;-78
2024/02/29 01:50:26;;;;;;;26.88;18.67;;;5.60;99.90;;;;;;5096329;28;20253;-78
2024/02/29 01:52:54;;;;;;;24.92;18.98;;;5.60;99.90;;;;;;5095710;28;20219;-77
2024/02/29 01:55:21;;;;;;;24.73;18.92;;;5.60;99.90;;;;;;5096128;28;20227;-77
2024/02/29 01:57:48;;;;;;;23.63;18.30;;;5.60;99.90;;;;;;5095841;28;20321;-77
2024/02/29 02:00:17;;;;;;;29.02;20.73;;;5.70;99.90;;;;;;5096029;28;20653;-77
2024/02/29 02:02:44;;;;;;;28.00;18.55;;;5.60;99.90;;;;;;5095815;28;20231;-77
2024/02/29 02:05:13;;;;;;;27.23;19.83;;;5.60;99.90;;;;;;5096121;28;20307;-78
2024/02/29 02:07:44;;;;;;;26.45;18.65;;;5.60;99.90;;;;;;5094922;28;20567;-78
2024/02/29 02:10:12;;;;;;;26.17;19.70;;;5.60;99.90;;;;;;5095727;28;20223;-78
2024/02/29 02:12:40;;;;;;;25.88;18.60;;;5.70;99.90;;;;;;5095185;28;20263;-78
2024/02/29 02:15:08;;;;;;;27.10;18.40;;;5.70;99.90;;;;;;5095379;28;20215;-78
2024/02/29 02:17:34;;;;;;;28.65;19.23;;;5.70;99.90;;;;;;5093355;28;20220;-78
2024/02/29 02:20:04;;;;;;;29.60;21.58;;;5.70;99.90;;;;;;5095347;28;20215;-78
2024/02/29 02:22:33;;;;;;;30.27;21.20;;;5.70;99.90;;;;;;5094768;28;20243;-77
2024/02/29 02:25:00;;;;;;;32.60;22.73;;;5.70;99.90;;;;;;5090113;28;20681;-77
2024/02/29 02:27:27;;;;;;;27.90;20.35;;;5.70;99.90;;;;;;5087734;28;20265;-77
2024/02/29 02:29:55;;;;;;;31.23;19.83;;;5.60;99.90;;;;;;5063752;28;20625;-77
2024/02/29 02:32:30;;;;;;;31.25;19.92;;;5.60;99.90;;;;;;5073630;28;20281;-77
2024/02/29 02:34:57;;;;;;;30.40;21.55;;;5.60;99.90;;;;;;5074764;28;20241;-77
2024/02/29 02:37:25;;;;;;;29.35;20.73;;;5.60;99.90;;;;;;5074576;28;20220;-78
2024/02/29 02:39:53;;;;;;;33.58;21.85;;;5.60;99.90;;;;;;5074967;28;20235;-77
2024/02/29 02:42:20;;;;;;;34.53;22.30;;;5.60;99.90;;;;;;5075184;28;20624;-78
2024/02/29 02:44:47;;;;;;;32.83;21.50;;;5.60;99.90;;;;;;5074899;28;20696;-78
2024/02/29 02:47:14;;;;;;;27.33;20.67;;;5.60;99.90;;;;;;5075175;28;20224;-79
2024/02/29 02:49:41;;;;;;;32.40;21.48;;;5.60;99.90;;;;;;5073985;28;20681;-78
2024/02/29 02:52:09;;;;;;;31.52;20.58;;;5.60;99.90;;;;;;5075026;28;20299;-78
2024/02/29 02:54:36;;;;;;;31.23;22.42;;;5.60;99.90;;;;;;5074567;28;20752;-78
2024/02/29 02:57:04;;;;;;;28.75;20.23;;;5.60;99.90;;;;;;5075072;28;20238;-78
2024/02/29 02:59:32;;;;;;;31.65;22.65;;;5.50;99.90;;;;;;5073907;28;20224;-78
2024/02/29 03:01:59;;;;;;;31.70;20.40;;;5.50;99.90;;;;;;5063461;28;20678;-79
2024/02/29 03:04:28;;;;;;;35.90;22.30;;;5.50;99.90;;;;;;5072756;28;20551;-78
2024/02/29 03:06:55;;;;;;;33.50;23.15;;;5.50;99.90;;;;;;5074019;28;20564;-78
2024/02/29 03:09:24;;;;;;;32.53;21.63;;;5.50;99.90;;;;;;5074811;28;20239;-79
2024/02/29 03:11:51;;;;;;;35.92;23.50;;;5.50;99.90;;;;;;5074127;28;20235;-78
2024/02/29 03:14:20;;;;;;;35.25;21.58;;;5.50;99.90;;;;;;5074605;28;20701;-79
2024/02/29 03:16:48;;;;;;;33.80;22.98;;;5.50;99.90;;;;;;5064099;28;20307;-78
2024/02/29 03:19:15;;;;;;;31.98;22.55;;;5.60;99.90;;;;;;5074574;28;20231;-78
2024/02/29 03:21:42;;;;;;;30.40;22.38;;;5.50;99.90;;;;;;5073846;28;20226;-78
2024/02/29 03:24:09;;;;;;;32.30;21.85;;;5.50;99.90;;;;;;5074280;28;20247;-78
2024/02/29 03:26:36;;;;;;;33.25;23.45;;;5.40;99.90;;;;;;5073944;28;20224;-78
2024/02/29 03:29:03;;;;;;;31.85;22.42;;;5.40;99.90;;;;;;5074039;28;20216;-78
2024/02/29 03:31:31;;;;;;;32.55;23.30;;;5.40;99.90;;;;;;5074115;28;20228;-78
2024/02/29 03:33:59;;;;;;;37.13;24.85;;;5.30;99.90;;;;;;5073119;28;20235;-78
2024/02/29 03:36:27;;;;;;;31.40;22.02;;;5.30;99.90;;;;;;5074421;28;20232;-77
2024/02/29 03:38:54;;;;;;;35.33;23.70;;;5.40;99.90;;;;;;5073480;28;20224;-77
2024/02/29 03:41:21;;;;;;;32.22;21.70;;;5.40;99.90;;;;;;5074023;28;20307;-77
2024/02/29 03:43:48;;;;;;;38.20;24.25;;;5.40;99.90;;;;;;5073453;28;20228;-77
2024/02/29 03:46:15;;;;;;;36.85;25.75;;;5.40;99.90;;;;;;5074221;28;20662;-78
2024/02/29 03:48:43;;;;;;;35.72;24.30;;;5.30;99.90;;;;;;5073931;28;20699;-78
2024/02/29 03:51:10;;;;;;;33.60;23.45;;;5.30;99.90;;;;;;5053719;28;20642;-77
2024/02/29 03:53:37;;;;;;;33.80;23.15;;;5.30;99.90;;;;;;5069326;28;20220;-77
2024/02/29 03:56:05;;;;;;;33.53;22.90;;;5.30;99.90;;;;;;5073364;28;20227;-77
2024/02/29 03:58:32;;;;;;;35.55;23.42;;;5.30;99.90;;;;;;5073345;28;20688;-78
2024/02/29 04:00:59;;;;;;;33.70;23.15;;;5.30;99.90;;;;;;5072360;28;20220;-78
2024/02/29 04:03:26;;;;;;;35.25;24.17;;;5.30;99.90;;;;;;5073499;28;20305;-78
2024/02/29 04:05:55;;;;;;;39.33;22.75;;;5.30;99.90;;;;;;5073064;28;20307;-78
2024/02/29 04:08:22;;;;;;;39.28;24.73;;;5.30;99.90;;;;;;5073519;28;20269;-77
2024/02/29 04:10:50;;;;;;;32.40;22.95;;;5.20;99.90;;;;;;5073159;28;20224;-77
2024/02/29 04:13:18;;;;;;;35.53;23.88;;;5.20;99.90;;;;;;5073958;28;20713;-76
2024/02/29 04:15:45;;;;;;;35.50;25.25;;;5.20;99.90;;;;;;5073365;28;20227;-76
2024/02/29 04:18:13;;;;;;;37.30;25.27;;;5.20;99.90;;;;;;5072887;28;20559;-77
2024/02/29 04:20:40;;;;;;;36.85;23.80;;;5.20;99.90;;;;;;5073291;28;20220;-78
2024/02/29 04:23:08;;;;;;;35.78;24.25;;;5.20;99.90;;;;;;5072897;28;20240;-78
2024/02/29 04:25:35;;;;;;;36.50;23.23;;;5.10;99.90;;;;;;5073330;28;20223;-78
2024/02/29 04:28:09;;;;;;;37.67;23.17;;;5.10;99.90;;;;;;5072992;28;20235;-78
2024/02/29 04:30:36;;;;;;;37.90;23.77;;;5.10;99.90;;;;;;5073157;28;20228;-78
2024/02/29 04:33:05;;;;;;;42.13;24.70;;;5.10;99.90;;;;;;5072597;28;20224;-78
2024/02/29 04:35:33;;;;;;;40.03;25.85;;;5.10;99.90;;;;;;5073312;28;20278;-78
2024/02/29 04:38:00;;;;;;;42.58;26.55;;;5.10;99.90;;;;;;5072718;28;20228;-78
2024/02/29 04:40:29;;;;;;;36.78;22.52;;;5.10;99.90;;;;;;5072873;28;20673;-78
2024/02/29 04:42:56;;;;;;;41.40;25.83;;;5.10;99.90;;;;;;5072535;28;20224;-78
2024/02/29 04:45:24;;;;;;;36.13;24.38;;;5.10;99.90;;;;;;5072995;28;20734;-78
2024/02/29 04:47:52;;;;;;;34.28;21.98;;;5.10;99.90;;;;;;5064777;28;20661;-78
2024/02/29 04:50:19;;;;;;;38.28;26.38;;;5.10;99.90;;;;;;5073073;28;20228;-77
2024/02/29 04:52:46;;;;;;;40.55;26.30;;;5.00;99.90;;;;;;5072856;28;20238;-78
2024/02/29 04:55:13;;;;;;;37.60;24.20;;;5.00;99.90;;;;;;5072326;28;20557;-78
2024/02/29 04:57:42;;;;;;;37.30;25.65;;;5.00;99.90;;;;;;5073139;28;20563;-78
2024/02/29 05:00:10;;;;;;;39.78;26.52;;;5.00;99.90;;;;;;5072535;28;20708;-78
2024/02/29 05:02:37;;;;;;;35.13;23.42;;;4.90;99.90;;;;;;5072928;28;20239;-77
2024/02/29 05:05:06;;;;;;;42.58;25.48;;;4.90;99.90;;;;;;5072566;28;20561;-77
2024/02/29 05:07:33;;;;;;;36.13;25.05;;;4.90;99.90;;;;;;5072535;28;20230;-78
2024/02/29 05:10:00;;;;;;;35.70;25.30;;;4.80;99.90;;;;;;5071775;28;20564;-78
2024/02/29 05:12:27;;;;;;;33.63;23.63;;;4.90;99.90;;;;;;5073530;28;20239;-78
2024/02/29 05:14:56;;;;;;;38.45;25.13;;;4.90;99.90;;;;;;5076403;28;20224;-78
2024/02/29 05:17:23;;;;;;;37.63;24.27;;;4.80;99.90;;;;;;5076974;28;20219;-78
2024/02/29 05:19:51;;;;;;;42.83;27.15;;;4.80;99.90;;;;;;5076669;28;20714;-78
2024/02/29 05:22:18;;;;;;;40.22;24.48;;;4.80;99.90;;;;;;5076186;28;20305;-78
2024/02/29 05:24:45;;;;;;;36.88;26.60;;;4.80;99.90;;;;;;5076839;28;20218;-78
2024/02/29 05:27:12;;;;;;;36.08;24.73;;;4.80;99.90;;;;;;5076117;28;20220;-78
2024/02/29 05:29:39;;;;;;;41.03;25.58;;;4.80;99.90;;;;;;5076488;28;20228;-78
2024/02/29 05:32:08;;;;;;;39.17;26.38;;;4.80;99.90;;;;;;5075991;28;20224;-77
2024/02/29 05:34:38;;;;;;;41.13;26.45;;;4.70;99.90;;;;;;5076543;28;20227;-78
2024/02/29 05:37:05;;;;;;;41.65;26.95;;;4.80;99.90;;;;;;5075816;28;20311;-78
2024/02/29 05:39:35;;;;;;;38.25;24.02;;;4.70;99.90;;;;;;5076519;28;20231;-78
2024/02/29 05:42:02;;;;;;;38.75;24.67;;;4.70;99.90;;;;;;5075950;28;20234;-78
2024/02/29 05:44:30;;;;;;;43.25;26.35;;;4.70;99.90;;;;;;5076354;28;20220;-77
2024/02/29 05:46:58;;;;;;;44.80;26.60;;;4.70;99.90;;;;;;5076051;28;20302;-77
2024/02/29 05:49:26;;;;;;;42.47;26.13;;;4.80;99.90;;;;;;5076423;28;20611;-77
2024/02/29 05:51:53;;;;;;;41.72;25.55;;;4.70;99.90;;;;;;5076122;28;20220;-78
2024/02/29 05:54:20;;;;;;;38.63;25.15;;;4.70;99.90;;;;;;5075683;28;20228;-78
2024/02/29 05:56:47;;;;;;;39.22;26.05;;;4.80;99.90;;;;;;5075951;28;20266;-77
2024/02/29 05:59:14;;;;;;;45.92;29.10;;;4.80;99.90;;;;;;5075587;28;20220;-78
2024/02/29 06:01:41;;;;;;;41.70;26.80;;;4.70;99.90;;;;;;5076247;28;20219;-77
2024/02/29 06:04:08;;;;;;;41.70;26.70;;;4.70;99.90;;;;;;5075304;28;20243;-76
2024/02/29 06:06:37;;;;;;;42.50;27.45;;;4.60;99.90;;;;;;5064735;28;20569;-76
2024/02/29 06:09:04;;;;;;;43.83;26.33;;;4.60;99.90;;;;;;5074969;28;20243;-76
2024/02/29 06:11:33;;;;;;;43.30;28.00;;;4.60;99.90;;;;;;5075641;28;20729;-76
2024/02/29 06:14:02;;;;;;;44.45;25.67;;;4.60;99.90;;;;;;5075616;28;20223;-77
2024/02/29 06:16:29;;;;;;;36.92;25.10;;;4.60;99.90;;;;;;5055792;28;20628;-76
2024/02/29 06:18:56;;;;;;;44.15;27.15;;;4.70;99.90;;;;;;5070967;28;20619;-76
2024/02/29 06:21:23;;;;;;;42.47;27.25;;;4.70;99.90;;;;;;5075121;28;20231;-77
2024/02/29 06:23:53;;;;;;;43.33;27.08;;;4.80;99.90;;;;;;5074813;28;20227;-76
2024/02/29 06:26:20;;;;;;;37.72;25.33;;;4.70;99.90;;;;;;5074511;28;20269;-77
2024/02/29 06:28:47;;;;;;;40.67;27.17;;;4.70;99.90;;;;;;5075536;28;20216;-76
2024/02/29 06:31:14;;;;;;;37.38;26.13;;;4.70;99.90;;;;;;5074810;28;20223;-77
2024/02/29 06:33:41;;;;;;;39.78;26.27;;;4.80;99.90;;;;;;5075092;28;20227;-77
2024/02/29 06:36:11;;;;;;;40.97;26.40;;;4.70;99.90;;;;;;5074831;28;20319;-77
2024/02/29 06:38:38;;;;;;;39.30;25.42;;;4.60;99.90;;;;;;5075047;28;20569;-77
2024/02/29 06:41:10;;;;;;;41.10;25.02;;;4.60;99.90;;;;;;5066313;28;20243;-76
2024/02/29 06:43:37;;;;;;;42.47;27.27;;;4.60;99.90;;;;;;5073315;28;20311;-77
2024/02/29 06:46:06;;;;;;;38.40;23.42;;;4.60;99.90;;;;;;5075175;28;20224;-76
2024/02/29 06:48:33;;;;;;;38.60;25.27;;;4.50;99.90;;;;;;5074105;28;20521;-77
2024/02/29 06:51:00;;;;;;;46.78;27.73;;;4.50;99.90;;;;;;5074458;28;20308;-76
2024/02/29 06:53:29;;;;;;;37.20;24.92;;;4.50;99.90;;;;;;5074410;28;20239;-77
2024/02/29 06:55:58;;;;;;;41.22;25.85;;;4.60;99.90;;;;;;5074640;28;20666;-76
2024/02/29 06:58:28;;;;;;;37.05;23.38;;;4.70;99.90;;;;;;5074498;28;20220;-77
2024/02/29 07:00:55;;;;;;;38.67;25.73;;;4.70;99.90;;;;;;5074447;28;20265;-77
2024/02/29 07:03:22;;;;;;;35.03;25.33;;;4.70;99.90;;;;;;5074461;28;20228;-76
2024/02/29 07:05:49;;;;;;;34.95;24.27;;;4.70;99.90;;;;;;5074648;28;20285;-77
2024/02/29 07:08:16;;;;;;;41.35;25.00;;;4.80;99.90;;;;;;5074292;28;20232;-77
2024/02/29 07:10:43;;;;;;;32.60;24.00;;;4.70;99.90;;;;;;5074570;28;20220;-78
2024/02/29 07:13:10;;;;;;;35.10;21.83;;;4.70;99.90;;;;;;5074418;28;20223;-78
2024/02/29 07:15:39;;;;;;;35.80;24.77;;;4.80;99.90;;;;;;5074008;28;20281;-77
2024/02/29 07:18:06;;;;;;;33.63;22.45;;;4.90;99.90;;;;;;5074439;28;20251;-78
2024/02/29 07:20:33;;;;;;;35.33;24.88;;;4.80;99.90;;;;;;5059822;28;20289;-78
2024/02/29 07:23:01;;;;;;;34.47;22.10;;;4.80;99.90;;;;;;5073800;28;20425;-77
2024/02/29 07:25:29;;;;;;;35.15;21.10;;;4.90;99.90;;;;;;5074464;28;20630;-78
2024/02/29 07:27:57;;;;;;;33.40;24.13;;;4.90;99.90;;;;;;5074647;28;20545;-78
2024/02/29 07:30:24;;;;;;;31.95;20.55;;;5.00;99.90;;;;;;5054050;28;20241;-78
2024/02/29 07:32:52;;;;;;;37.85;23.35;;;5.00;99.90;;;;;;5069369;28;20247;-78
2024/02/29 07:35:19;;;;;;;35.00;22.98;;;5.10;99.90;;;;;;5073748;28;20234;-78
2024/02/29 07:37:48;;;;;;;38.22;24.20;;;5.20;99.90;;;;;;5074046;28;20273;-78
2024/02/29 07:40:16;;;;;;;32.92;22.85;;;5.20;99.90;;;;;;5073142;28;20565;-78
2024/02/29 07:42:43;;;;;;;35.85;22.20;;;5.20;99.90;;;;;;5073848;28;20236;-78
2024/02/29 07:45:11;;;;;;;31.02;21.67;;;5.30;99.90;;;;;;5073539;28;20235;-78
2024/02/29 07:47:40;;;;;;;31.90;21.70;;;5.30;99.90;;;;;;5074075;28;20692;-78
2024/02/29 07:50:09;;;;;;;32.78;21.45;;;5.30;99.90;;;;;;5072998;28;20250;-78
2024/02/29 07:52:37;;;;;;;34.08;22.30;;;5.30;99.90;;;;;;5073866;28;20234;-77
2024/02/29 07:55:05;;;;;;;31.63;21.63;;;5.40;99.90;;;;;;5073463;28;20220;-76
2024/02/29 07:57:32;;;;;;;31.80;21.50;;;5.40;99.90;;;;;;5073901;28;20239;-77
2024/02/29 08:00:04;;;;;;;33.97;21.38;;;5.50;99.90;;;;;;5073478;28;20247;-77
2024/02/29 08:02:31;;;;;;;32.80;21.67;;;5.60;99.90;;;;;;5073069;28;20228;-77
2024/02/29 08:04:59;;;;;;;35.45;21.58;;;5.60;99.90;;;;;;5073294;28;20235;-78
2024/02/29 08:07:27;;;;;;;32.67;22.67;;;5.70;99.90;;;;;;5072714;28;20223;-78
2024/02/29 08:09:54;;;;;;;34.67;22.58;;;5.80;99.90;;;;;;5073471;28;20574;-78
2024/02/29 08:12:25;;;;;;;35.13;23.05;;;5.80;99.90;;;;;;5071987;28;20314;-78
2024/02/29 08:14:52;;;;;;;34.38;23.65;;;5.90;99.90;;;;;;5072939;28;20220;-78
2024/02/29 08:17:19;;;;;;;33.20;23.33;;;6.00;99.90;;;;;;5073021;28;20846;-77
2024/02/29 08:19:54;;;;;;;32.17;23.98;;;5.90;99.90;;;;;;5073216;28;20314;-77
2024/02/29 08:22:21;;;;;;;34.35;24.33;;;5.90;99.90;;;;;;5072429;28;20227;-77
2024/02/29 08:24:50;;;;;;;31.90;22.65;;;6.00;99.90;;;;;;5073293;28;20247;-77
2024/02/29 08:27:17;;;;;;;31.45;22.00;;;6.00;99.90;;;;;;5072791;28;20229;-77
2024/02/29 08:29:44;;;;;;;37.78;23.70;;;6.20;99.90;;;;;;5073403;28;20246;-78
2024/02/29 08:32:11;;;;;;;30.85;22.83;;;6.20;99.90;;;;;;5072411;28;20226;-77
2024/02/29 08:34:38;;;;;;;32.22;22.70;;;6.30;99.90;;;;;;5072166;28;20684;-77
2024/02/29 08:37:05;;;;;;;31.67;22.42;;;6.40;99.90;;;;;;5072988;28;20219;-77
2024/02/29 08:39:33;;;;;;;31.05;22.00;;;6.60;99.90;;;;;;5072133;28;20232;-77
2024/02/29 08:42:04;;;;;;;39.70;24.80;;;6.60;99.90;;;;;;5073177;28;20273;-77
2024/02/29 08:44:35;;;;;;;31.27;22.85;;;6.70;99.90;;;;;;5072784;28;20689;-78
2024/02/29 08:47:04;;;;;;;38.50;24.70;;;6.70;99.90;;;;;;5071949;28;20220;-77
2024/02/29 08:49:31;;;;;;;34.20;22.42;;;6.80;99.90;;;;;;5072206;28;20224;-77
2024/02/29 08:51:58;;;;;;;34.83;22.80;;;6.90;99.90;;;;;;5072756;28;20224;-77
2024/02/29 08:54:26;;;;;;;32.25;23.35;;;6.90;99.90;;;;;;5072243;28;20254;-77
2024/02/29 08:56:54;;;;;;;28.55;22.00;;;6.90;99.90;;;;;;5073128;28;20224;-77
2024/02/29 08:59:23;;;;;;;33.38;23.10;;;7.00;99.90;;;;;;5061597;28;20240;-77
2024/02/29 09:01:50;;;;;;;35.20;23.33;;;7.00;99.90;;;;;;5052129;28;20316;-77
2024/02/29 09:04:17;;;;;;;30.90;22.38;;;7.20;99.90;;;;;;5052630;28;20232;-77
2024/02/29 09:06:44;;;;;;;33.45;23.35;;;7.20;99.90;;;;;;5052401;28;20286;-78
2024/02/29 09:09:11;;;;;;;37.67;23.67;;;7.20;99.90;;;;;;5052151;28;20217;-77
2024/02/29 09:11:38;;;;;;;27.35;21.02;;;7.30;99.90;;;;;;5052542;28;20240;-79
2024/02/29 09:14:05;;;;;;;32.63;21.67;;;7.50;99.90;;;;;;5052448;28;20254;-78
2024/02/29 09:16:33;;;;;;;31.23;21.95;;;7.50;99.90;;;;;;5052206;28;20234;-78
2024/02/29 09:19:06;;;;;;;29.02;21.92;;;7.60;99.90;;;;;;5052336;28;20222;-78
2024/02/29 09:21:33;;;;;;;31.00;21.73;;;7.70;99.90;;;;;;5052719;28;20232;-77
2024/02/29 09:24:00;;;;;;;30.42;21.33;;;7.80;99.90;;;;;;5052585;28;20224;-77
2024/02/29 09:26:27;;;;;;;30.15;22.30;;;7.90;99.90;;;;;;5052806;28;20221;-78
2024/02/29 09:28:54;;;;;;;30.67;22.65;;;8.00;99.90;;;;;;5052905;28;20221;-77
2024/02/29 09:31:24;;;;;;;29.83;21.52;;;8.10;99.90;;;;;;5052268;28;20235;-77
2024/02/29 09:33:53;;;;;;;28.63;22.48;;;8.10;99.90;;;;;;5051567;28;20627;-77
2024/02/29 09:36:21;;;;;;;28.35;20.80;;;8.20;99.90;;;;;;5052677;28;20232;-77
2024/02/29 09:38:48;;;;;;;32.28;21.80;;;8.30;99.90;;;;;;5052062;28;20232;-77
2024/02/29 09:41:15;;;;;;;25.95;19.92;;;8.30;99.90;;;;;;5052583;28;20221;-77
2024/02/29 09:43:44;;;;;;;26.65;20.02;;;8.40;99.90;;;;;;5052149;28;20236;-77
2024/02/29 09:46:11;;;;;;;26.25;19.00;;;8.60;99.90;;;;;;5042172;28;20252;-77
2024/02/29 09:48:39;;;;;;;27.73;20.10;;;8.70;99.90;;;;;;5059181;28;20571;-77
2024/02/29 09:51:13;;;;;;;26.65;18.70;;;8.80;99.90;;;;;;5052225;28;20231;-77
2024/02/29 09:53:41;;;;;;;22.85;18.67;;;8.90;99.90;;;;;;5052087;28;20327;-77
2024/02/29 09:56:10;;;;;;;29.30;20.70;;;8.90;99.90;;;;;;5052522;28;20552;-77
2024/02/29 09:58:38;;;;;;;26.52;19.27;;;9.00;99.90;;;;;;5052077;28;20225;-76
2024/02/29 10:01:08;;;;;;;30.05;20.42;;;9.10;99.90;;;;;;5046502;28;20610;-77
2024/02/29 10:03:38;;;;;;;29.70;22.30;;;9.20;99.90;;;;;;5052881;28;20225;-78
2024/02/29 10:06:07;;;;;;;26.85;20.63;;;9.20;99.90;;;;;;5056036;28;20221;-76
2024/02/29 10:08:35;;;;;;;25.00;20.02;;;9.30;99.90;;;;;;5060637;28;20224;-77
2024/02/29 10:11:07;;;;;;;25.33;18.52;;;9.30;99.90;;;;;;5046698;28;20221;-77
2024/02/29 10:13:38;;;;;;;28.15;19.90;;;9.30;99.90;;;;;;5071345;28;20231;-78
2024/02/29 10:16:08;;;;;;;29.80;19.95;;;9.40;99.90;;;;;;5075531;28;20725;-78
2024/02/29 10:18:37;;;;;;;25.25;19.65;;;9.50;99.90;;;;;;5075945;28;20244;-77
2024/02/29 10:21:11;;;;;;;27.63;19.23;;;9.60;99.90;;;;;;5075760;28;20226;-79
2024/02/29 10:23:38;;;;;;;25.88;19.83;;;9.60;99.90;;;;;;5073998;28;20707;-77
2024/02/29 10:26:05;;;;;;;26.98;19.15;;;9.60;99.90;;;;;;5075120;28;20676;-78
2024/02/29 10:28:33;;;;;;;25.48;18.92;;;9.70;99.90;;;;;;5075225;28;20677;-79
2024/02/29 10:31:01;;;;;;;22.80;18.20;;;9.80;99.90;;;;;;5075301;28;20573;-79
2024/02/29 10:33:28;;;;;;;22.95;18.73;;;9.80;99.90;;;;;;5075398;28;20545;-77
2024/02/29 10:35:59;;;;;;;24.33;19.10;;;9.90;99.90;;;;;;5074901;28;20285;-78
2024/02/29 10:38:28;;;;;;;23.95;19.80;;;9.90;99.90;;;;;;5075480;28;20307;-79
2024/02/29 10:41:01;;;;;;;24.45;18.70;;;10.00;99.90;;;;;;5074674;28;20231;-79
2024/02/29 10:43:34;;;;;;;30.63;19.30;;;10.00;99.90;;;;;;5074749;28;20231;-79
2024/02/29 10:46:08;;;;;;;26.05;19.50;;;10.10;99.90;;;;;;5074990;28;20220;-79
2024/02/29 10:48:50;;;;;;;27.13;20.60;;;10.20;99.90;;;;;;5075235;28;20228;-79
2024/02/29 10:51:24;;;;;;;24.38;19.02;;;10.20;99.90;;;;;;5074674;28;20293;-77
2024/02/29 10:54:03;;;;;;;24.10;19.25;;;10.20;99.90;;;;;;5074876;28;20235;-77
2024/02/29 10:56:33;;;;;;;23.50;19.05;;;10.30;99.90;;;;;;5055282;28;20220;-79
2024/02/29 10:59:06;;;;;;;26.35;20.10;;;10.30;99.90;;;;;;5054579;28;20247;-78
2024/02/29 11:01:34;;;;;;;27.88;20.75;;;10.40;99.90;;;;;;5071011;28;20224;-79
2024/02/29 11:04:02;;;;;;;24.70;19.85;;;10.40;99.90;;;;;;5054157;28;20311;-79
2024/02/29 11:06:33;;;;;;;25.27;18.83;;;10.50;99.90;;;;;;5070386;28;20224;-79
2024/02/29 11:09:03;;;;;;;21.77;17.67;;;10.50;99.90;;;;;;5064114;28;20232;-79
2024/02/29 11:11:33;;;;;;;25.60;20.17;;;10.60;99.90;;;;;;5073676;28;20255;-79
2024/02/29 11:14:07;;;;;;;26.15;21.35;;;10.70;99.90;;;;;;5073909;28;20232;-79
2024/02/29 11:16:39;;;;;;;29.95;21.48;;;10.60;99.90;;;;;;5074780;28;20356;-79
2024/02/29 11:19:11;;;;;;;23.30;19.60;;;10.60;99.90;;;;;;5054145;28;20225;-79
2024/02/29 11:21:38;;;;;;;25.42;19.50;;;10.60;99.90;;;;;;5070529;28;20293;-79
2024/02/29 11:24:08;;;;;;;25.10;18.63;;;10.70;99.90;;;;;;5072813;28;20242;-78
2024/02/29 11:26:36;;;;;;;22.25;18.85;;;10.70;99.90;;;;;;5074174;28;20220;-77
2024/02/29 11:29:12;;;;;;;29.30;20.15;;;10.70;99.90;;;;;;5073480;28;20235;-77
2024/02/29 11:31:43;;;;;;;27.77;21.50;;;10.70;99.90;;;;;;5074316;28;20227;-78
2024/02/29 11:34:13;;;;;;;33.63;22.05;;;10.80;99.90;;;;;;5073659;28;20231;-77
2024/02/29 11:36:41;;;;;;;25.13;19.27;;;10.80;99.90;;;;;;5074330;28;20713;-77
2024/02/29 11:39:10;;;;;;;25.08;19.77;;;10.80;99.90;;;;;;5073574;28;20658;-78
2024/02/29 11:41:38;;;;;;;20.88;18.60;;;10.90;99.90;;;;;;5074239;28;20232;-78
2024/02/29 11:44:05;;;;;;;28.15;21.15;;;11.00;99.90;;;;;;5073541;28;20224;-77
2024/02/29 11:46:32;;;;;;;23.48;19.08;;;11.00;99.90;;;;;;5073928;28;20234;-77
2024/02/29 11:48:59;;;;;;;25.80;20.38;;;11.00;99.90;;;;;;5073049;28;20685;-77
2024/02/29 11:51:31;;;;;;;26.05;20.50;;;11.00;99.90;;;;;;5073849;28;20228;-79
2024/02/29 11:53:58;;;;;;;25.75;19.58;;;11.10;99.90;;;;;;5072637;28;20289;-76
2024/02/29 11:56:34;;;;;;;26.58;20.42;;;11.10;99.90;;;;;;5074119;28;20700;-76
2024/02/29 11:59:02;;;;;;;21.05;18.42;;;11.20;99.90;;;;;;5073673;28;20538;-77
2024/02/29 12:01:30;;;;;;;23.35;18.70;;;11.20;99.90;;;;;;5061106;28;20216;-77
2024/02/29 12:03:57;;;;;;;23.80;18.40;;;11.30;99.90;;;;;;5072525;28;20247;-77
2024/02/29 12:06:25;;;;;;;25.20;19.35;;;11.40;99.90;;;;;;5073727;28;20235;-77
2024/02/29 12:08:52;;;;;;;24.92;20.48;;;11.40;99.90;;;;;;5072975;28;20678;-77
2024/02/29 12:11:20;;;;;;;21.63;19.15;;;11.40;99.90;;;;;;5073563;28;20223;-77
2024/02/29 12:13:49;;;;;;;20.20;16.30;;;11.50;99.90;;;;;;5072753;28;20227;-77
2024/02/29 12:16:25;;;;;;;21.63;19.25;;;11.60;99.90;;;;;;5073520;28;20692;-77
2024/02/29 12:18:52;;;;;;;27.38;20.52;;;11.60;99.90;;;;;;5072878;28;20228;-77
2024/02/29 12:21:19;;;;;;;26.02;21.48;;;11.60;99.90;;;;;;5073490;28;20223;-77
2024/02/29 12:23:47;;;;;;;23.17;17.85;;;11.60;99.90;;;;;;5072205;28;20224;-78
2024/02/29 12:26:16;;;;;;;23.85;18.13;;;11.60;99.90;;;;;;5073201;28;20270;-77
2024/02/29 12:28:43;;;;;;;23.42;19.90;;;11.60;99.90;;;;;;5073446;28;20230;-77
2024/02/29 12:31:11;;;;;;;25.08;20.60;;;11.60;99.90;;;;;;5072813;28;20220;-77
2024/02/29 12:33:39;;;;;;;24.02;20.15;;;11.70;99.90;;;;;;5061842;28;20621;-77
2024/02/29 12:36:07;;;;;;;25.95;20.33;;;11.70;99.90;;;;;;5072266;28;20561;-77
2024/02/29 12:38:36;;;;;;;23.08;19.67;;;11.80;99.90;;;;;;5073276;28;20232;-77
2024/02/29 12:41:03;;;;;;;22.15;17.20;;;11.80;99.90;;;;;;5061761;28;20573;-77